createdAt,value
2019-02-26T00:00:27.067Z,0.00
2019-02-26T00:01:28.584Z,0.00
2019-02-26T00:02:28.799Z,0.00
2019-02-26T00:03:28.626Z,0.00
2019-02-26T00:04:27.305Z,0.00
2019-02-26T00:05:28.489Z,0.00
2019-02-26T00:06:28.466Z,0.00
2019-02-26T00:07:28.172Z,0.00
2019-02-26T00:08:27.460Z,0.00
2019-02-26T00:09:27.625Z,0.00
2019-02-26T00:10:27.243Z,0.00
2019-02-26T00:11:28.514Z,0.00
2019-02-26T00:12:28.614Z,0.00
2019-02-26T00:13:27.171Z,0.00
2019-02-26T00:14:27.572Z,0.00
2019-02-26T00:15:26.236Z,0.00
2019-02-26T00:16:26.245Z,0.00
2019-02-26T00:17:26.121Z,0.00
2019-02-26T00:18:26.084Z,0.00
2019-02-26T00:19:25.998Z,0.00
2019-02-26T00:20:26.007Z,0.00
2019-02-26T00:21:26.438Z,0.00
2019-02-26T00:22:25.876Z,0.00
2019-02-26T00:23:27.824Z,0.00
2019-02-26T00:24:25.765Z,0.00
2019-02-26T00:25:25.660Z,0.00
2019-02-26T00:26:25.731Z,0.00
2019-02-26T00:27:26.262Z,0.00
2019-02-26T00:28:25.604Z,0.00
2019-02-26T00:29:27.608Z,0.00
2019-02-26T00:30:25.400Z,0.00
2019-02-26T00:31:26.143Z,0.00
2019-02-26T00:32:25.286Z,0.00
2019-02-26T00:33:26.791Z,0.00
2019-02-26T00:34:25.249Z,0.00
2019-02-26T00:35:25.785Z,0.00
2019-02-26T00:36:27.026Z,0.00
2019-02-26T00:37:26.357Z,0.00
2019-02-26T00:38:25.008Z,0.00
2019-02-26T00:39:25.523Z,0.00
2019-02-26T00:40:24.886Z,0.00
2019-02-26T00:41:26.727Z,0.00
2019-02-26T00:42:26.316Z,0.00
2019-02-26T00:43:26.041Z,0.00
2019-02-26T00:44:25.166Z,0.00
2019-02-26T00:45:26.953Z,0.00
2019-02-26T00:46:26.150Z,0.00
2019-02-26T00:47:24.531Z,0.00
2019-02-26T00:48:24.540Z,0.00
2019-02-26T00:49:25.817Z,0.00
2019-02-26T00:50:24.331Z,0.00
2019-02-26T00:51:24.829Z,0.00
2019-02-26T00:52:24.214Z,0.00
2019-02-26T00:53:25.984Z,0.00
2019-02-26T00:54:26.268Z,0.00
2019-02-26T00:55:27.333Z,0.00
2019-02-26T00:56:25.318Z,0.00
2019-02-26T00:57:27.153Z,0.00
2019-02-26T00:58:23.856Z,0.00
2019-02-26T00:59:23.852Z,0.00
2019-02-26T01:00:24.679Z,0.00
2019-02-26T01:01:23.893Z,0.00
2019-02-26T01:02:23.610Z,0.00
2019-02-26T01:03:23.615Z,0.00
2019-02-26T01:04:23.579Z,0.00
2019-02-26T01:05:23.497Z,0.00
2019-02-26T01:06:25.128Z,0.00
2019-02-26T01:07:23.861Z,0.00
2019-02-26T01:08:23.275Z,0.00
2019-02-26T01:09:25.118Z,0.00
2019-02-26T01:10:23.632Z,0.00
2019-02-26T01:11:23.831Z,0.00
2019-02-26T01:12:23.111Z,0.00
2019-02-26T01:13:25.017Z,0.00
2019-02-26T01:14:24.277Z,0.00
2019-02-26T01:15:22.895Z,0.00
2019-02-26T01:16:22.863Z,0.00
2019-02-26T01:17:22.780Z,0.00
2019-02-26T01:18:24.468Z,0.00
2019-02-26T01:19:22.745Z,0.00
2019-02-26T01:20:24.699Z,0.00
2019-02-26T01:21:26.225Z,0.00
2019-02-26T01:22:22.542Z,0.00
2019-02-26T01:23:24.261Z,0.00
2019-02-26T01:24:24.328Z,0.00
2019-02-26T01:25:22.966Z,0.00
2019-02-26T01:26:22.304Z,0.00
2019-02-26T01:27:22.267Z,0.00
2019-02-26T01:28:22.973Z,0.00
2019-02-26T01:29:23.039Z,0.00
2019-02-26T01:30:24.319Z,0.00
2019-02-26T01:31:22.867Z,0.00
2019-02-26T01:32:23.168Z,0.00
2019-02-26T01:33:22.932Z,0.00
2019-02-26T01:34:21.828Z,0.00
2019-02-26T01:35:21.910Z,0.00
2019-02-26T01:36:23.689Z,0.00
2019-02-26T01:37:21.708Z,0.00
2019-02-26T01:38:23.703Z,0.00
2019-02-26T01:39:23.330Z,0.00
2019-02-26T01:40:23.563Z,0.00
2019-02-26T01:41:23.282Z,0.00
2019-02-26T01:42:22.981Z,0.00
2019-02-26T01:43:21.351Z,0.00
2019-02-26T01:44:21.318Z,0.00
2019-02-26T01:45:22.360Z,0.00
2019-02-26T01:46:21.245Z,0.00
2019-02-26T01:47:21.901Z,0.00
2019-02-26T01:48:21.083Z,0.00
2019-02-26T01:49:21.608Z,0.00
2019-02-26T01:50:21.000Z,0.00
2019-02-26T01:51:21.886Z,0.00
2019-02-26T01:52:20.874Z,0.00
2019-02-26T01:53:21.474Z,0.00
2019-02-26T01:54:20.843Z,0.00
2019-02-26T01:55:22.514Z,0.00
2019-02-26T01:56:20.639Z,0.00
2019-02-26T01:57:20.599Z,0.00
2019-02-26T01:58:20.518Z,0.00
2019-02-26T01:59:20.514Z,0.00
2019-02-26T02:00:20.394Z,0.00
2019-02-26T02:01:22.011Z,0.00
2019-02-26T02:02:22.426Z,0.00
2019-02-26T02:03:20.804Z,0.00
2019-02-26T02:04:20.161Z,0.00
2019-02-26T02:05:21.605Z,0.00
2019-02-26T02:06:20.126Z,0.00
2019-02-26T02:07:21.320Z,0.00
2019-02-26T02:08:22.417Z,0.00
2019-02-26T02:09:20.524Z,0.00
2019-02-26T02:10:19.817Z,0.00
2019-02-26T02:11:23.401Z,0.00
2019-02-26T02:12:19.763Z,0.00
2019-02-26T02:13:19.681Z,0.00
2019-02-26T02:14:19.645Z,0.00
2019-02-26T02:15:21.626Z,0.00
2019-02-26T02:16:19.567Z,0.00
2019-02-26T02:17:19.454Z,0.00
2019-02-26T02:18:21.010Z,0.00
2019-02-26T02:19:20.856Z,0.00
2019-02-26T02:20:21.475Z,0.00
2019-02-26T02:21:19.287Z,0.00
2019-02-26T02:22:21.239Z,0.00
2019-02-26T02:23:21.073Z,0.00
2019-02-26T02:24:20.558Z,0.00
2019-02-26T02:25:18.983Z,0.00
2019-02-26T02:26:18.973Z,0.00
2019-02-26T02:27:20.335Z,0.00
2019-02-26T02:28:19.564Z,0.00
2019-02-26T02:29:19.189Z,0.00
2019-02-26T02:30:23.292Z,0.00
2019-02-26T02:31:18.693Z,0.00
2019-02-26T02:32:20.722Z,0.00
2019-02-26T02:33:23.657Z,0.00
2019-02-26T02:34:18.486Z,0.00
2019-02-26T02:35:19.317Z,0.00
2019-02-26T02:36:20.509Z,0.00
2019-02-26T02:37:23.761Z,0.00
2019-02-26T02:38:20.443Z,0.00
2019-02-26T02:39:20.789Z,0.00
2019-02-26T02:40:18.133Z,0.00
2019-02-26T02:41:18.219Z,0.00
2019-02-26T02:42:19.157Z,0.00
2019-02-26T02:43:20.709Z,0.00
2019-02-26T02:44:20.361Z,0.00
2019-02-26T02:45:20.964Z,0.00
2019-02-26T02:46:17.870Z,0.00
2019-02-26T02:47:17.771Z,0.00
2019-02-26T02:48:17.738Z,0.00
2019-02-26T02:49:18.000Z,0.00
2019-02-26T02:50:18.536Z,0.00
2019-02-26T02:51:17.553Z,0.00
2019-02-26T02:52:17.500Z,0.00
2019-02-26T02:53:20.488Z,0.00
2019-02-26T02:54:18.573Z,0.00
2019-02-26T02:55:19.269Z,0.00
2019-02-26T02:56:18.001Z,0.00
2019-02-26T02:57:17.187Z,0.00
2019-02-26T02:58:18.183Z,0.00
2019-02-26T02:59:17.072Z,0.00
2019-02-26T03:00:17.225Z,0.00
2019-02-26T03:01:20.410Z,0.00
2019-02-26T03:02:17.798Z,0.00
2019-02-26T03:03:16.839Z,0.00
2019-02-26T03:04:19.604Z,0.00
2019-02-26T03:05:16.795Z,0.00
2019-02-26T03:06:16.703Z,0.00
2019-02-26T03:07:18.053Z,0.00
2019-02-26T03:08:19.387Z,0.00
2019-02-26T03:09:17.729Z,0.00
2019-02-26T03:10:16.466Z,0.00
2019-02-26T03:11:16.435Z,0.00
2019-02-26T03:12:16.345Z,0.00
2019-02-26T03:13:16.950Z,0.00
2019-02-26T03:14:18.493Z,0.00
2019-02-26T03:15:16.227Z,0.00
2019-02-26T03:16:18.748Z,0.00
2019-02-26T03:17:18.192Z,0.00
2019-02-26T03:18:16.920Z,0.00
2019-02-26T03:19:17.010Z,0.00
2019-02-26T03:20:15.891Z,0.00
2019-02-26T03:21:16.780Z,0.00
2019-02-26T03:22:18.158Z,0.00
2019-02-26T03:23:19.509Z,0.00
2019-02-26T03:24:15.719Z,0.00
2019-02-26T03:25:17.495Z,0.00
2019-02-26T03:26:17.656Z,0.00
2019-02-26T03:27:15.513Z,0.00
2019-02-26T03:28:15.473Z,0.00
2019-02-26T03:29:15.473Z,0.00
2019-02-26T03:30:20.202Z,0.00
2019-02-26T03:31:15.356Z,0.00
2019-02-26T03:32:15.270Z,0.00
2019-02-26T03:33:15.161Z,0.00
2019-02-26T03:34:21.783Z,0.00
2019-02-26T03:35:16.655Z,0.00
2019-02-26T03:36:16.724Z,0.00
2019-02-26T03:37:15.003Z,0.00
2019-02-26T03:38:15.929Z,0.00
2019-02-26T03:39:14.878Z,0.00
2019-02-26T03:40:14.796Z,0.00
2019-02-26T03:41:16.603Z,0.00
2019-02-26T03:42:16.662Z,0.00
2019-02-26T03:43:16.210Z,0.00
2019-02-26T03:44:14.551Z,0.00
2019-02-26T03:45:14.558Z,0.00
2019-02-26T03:46:14.520Z,0.00
2019-02-26T03:47:16.308Z,0.00
2019-02-26T03:48:19.306Z,0.00
2019-02-26T03:49:14.322Z,0.00
2019-02-26T03:50:14.286Z,0.00
2019-02-26T03:51:17.166Z,0.00
2019-02-26T03:52:15.903Z,0.00
2019-02-26T03:53:14.075Z,0.00
2019-02-26T03:54:14.047Z,0.00
2019-02-26T03:55:15.427Z,0.00
2019-02-26T03:56:14.886Z,0.00
2019-02-26T03:57:14.223Z,0.00
2019-02-26T03:58:13.808Z,0.00
2019-02-26T03:59:13.725Z,0.00
2019-02-26T04:00:14.936Z,0.00
2019-02-26T04:01:16.003Z,0.00
2019-02-26T04:02:15.479Z,0.00
2019-02-26T04:03:15.164Z,0.00
2019-02-26T04:04:13.481Z,0.00
2019-02-26T04:05:13.448Z,0.00
2019-02-26T04:06:13.367Z,0.00
2019-02-26T04:07:13.259Z,0.00
2019-02-26T04:08:13.241Z,0.00
2019-02-26T04:09:14.520Z,0.00
2019-02-26T04:10:13.124Z,0.00
2019-02-26T04:11:13.973Z,0.00
2019-02-26T04:12:15.305Z,0.00
2019-02-26T04:13:12.980Z,0.00
2019-02-26T04:14:15.014Z,0.00
2019-02-26T04:15:12.852Z,0.00
2019-02-26T04:16:12.860Z,0.00
2019-02-26T04:17:12.735Z,0.00
2019-02-26T04:18:12.648Z,0.00
2019-02-26T04:19:12.647Z,0.00
2019-02-26T04:20:12.615Z,0.00
2019-02-26T04:21:14.363Z,0.00
2019-02-26T04:22:14.804Z,0.00
2019-02-26T04:23:14.213Z,0.00
2019-02-26T04:24:12.312Z,0.00
2019-02-26T04:25:12.375Z,0.00
2019-02-26T04:26:15.985Z,0.00
2019-02-26T04:27:12.174Z,0.00
2019-02-26T04:28:12.168Z,0.00
2019-02-26T04:29:12.056Z,0.00
2019-02-26T04:30:13.660Z,0.00
2019-02-26T04:31:11.934Z,0.00
2019-02-26T04:32:12.121Z,0.00
2019-02-26T04:33:14.056Z,0.00
2019-02-26T04:34:11.841Z,0.00
2019-02-26T04:35:11.695Z,0.00
2019-02-26T04:36:12.551Z,0.00
2019-02-26T04:37:12.897Z,0.00
2019-02-26T04:38:11.658Z,0.00
2019-02-26T04:39:13.641Z,0.00
2019-02-26T04:40:13.972Z,0.00
2019-02-26T04:41:15.157Z,0.00
2019-02-26T04:42:13.682Z,0.00
2019-02-26T04:43:12.865Z,0.00
2019-02-26T04:44:11.310Z,0.00
2019-02-26T04:45:11.185Z,0.00
2019-02-26T04:46:13.437Z,0.00
2019-02-26T04:47:11.069Z,0.00
2019-02-26T04:48:14.740Z,0.00
2019-02-26T04:49:10.945Z,0.00
2019-02-26T04:50:10.947Z,0.00
2019-02-26T04:51:10.864Z,0.00
2019-02-26T04:52:14.033Z,0.00
2019-02-26T04:53:11.199Z,0.00
2019-02-26T04:54:10.632Z,0.00
2019-02-26T04:55:10.722Z,0.00
2019-02-26T04:56:12.782Z,0.00
2019-02-26T04:57:10.502Z,0.00
2019-02-26T04:58:12.227Z,0.00
2019-02-26T04:59:11.850Z,0.00
2019-02-26T05:00:10.718Z,0.00
2019-02-26T05:01:12.364Z,0.00
2019-02-26T05:02:10.229Z,0.00
2019-02-26T05:03:13.604Z,0.00
2019-02-26T05:04:10.154Z,0.00
2019-02-26T05:05:10.038Z,0.00
2019-02-26T05:06:10.859Z,0.00
2019-02-26T05:07:13.181Z,0.00
2019-02-26T05:08:12.066Z,0.00
2019-02-26T05:09:10.614Z,0.00
2019-02-26T05:10:09.820Z,0.00
2019-02-26T05:11:14.881Z,0.00
2019-02-26T05:12:09.679Z,0.00
2019-02-26T05:13:09.838Z,0.00
2019-02-26T05:14:11.190Z,0.00
2019-02-26T05:15:13.901Z,0.00
2019-02-26T05:16:09.523Z,0.00
2019-02-26T05:17:09.395Z,0.00
2019-02-26T05:18:09.308Z,0.00
2019-02-26T05:19:10.655Z,0.00
2019-02-26T05:20:12.408Z,0.00
2019-02-26T05:21:10.819Z,0.00
2019-02-26T05:22:09.073Z,0.00
2019-02-26T05:23:09.158Z,0.00
2019-02-26T05:24:08.952Z,0.00
2019-02-26T05:25:13.367Z,0.00
2019-02-26T05:26:11.550Z,0.00
2019-02-26T05:27:10.199Z,0.00
2019-02-26T05:28:10.063Z,0.00
2019-02-26T05:29:08.800Z,0.00
2019-02-26T05:30:09.839Z,0.00
2019-02-26T05:31:09.700Z,0.00
2019-02-26T05:32:09.319Z,0.00
2019-02-26T05:33:08.570Z,0.00
2019-02-26T05:34:08.480Z,0.00
2019-02-26T05:35:08.373Z,0.00
2019-02-26T05:36:09.464Z,0.00
2019-02-26T05:37:10.988Z,0.00
2019-02-26T05:38:09.645Z,0.00
2019-02-26T05:39:08.204Z,0.00
2019-02-26T05:40:10.498Z,0.00
2019-02-26T05:41:08.002Z,0.00
2019-02-26T05:42:08.003Z,0.00
2019-02-26T05:43:07.904Z,4.00
2019-02-26T05:44:10.511Z,4.00
2019-02-26T05:45:09.392Z,4.00
2019-02-26T05:46:07.850Z,4.00
2019-02-26T05:47:07.729Z,4.00
2019-02-26T05:48:07.646Z,8.00
2019-02-26T05:49:12.529Z,4.00
2019-02-26T05:50:13.104Z,4.00
2019-02-26T05:51:09.333Z,8.00
2019-02-26T05:52:07.407Z,12.00
2019-02-26T05:53:08.439Z,12.00
2019-02-26T05:54:08.219Z,12.00
2019-02-26T05:55:07.254Z,16.00
2019-02-26T05:56:08.952Z,24.00
2019-02-26T05:57:10.877Z,24.00
2019-02-26T05:58:07.942Z,28.00
2019-02-26T05:59:09.596Z,32.00
2019-02-26T06:00:08.421Z,40.00
2019-02-26T06:01:35.459Z,48.00
2019-02-26T06:02:06.829Z,52.00
2019-02-26T06:03:09.670Z,60.00
2019-02-26T06:04:07.777Z,64.00
2019-02-26T06:05:06.687Z,76.00
2019-02-26T06:06:06.663Z,84.00
2019-02-26T06:07:06.573Z,96.00
2019-02-26T06:08:06.542Z,104.00
2019-02-26T06:09:07.721Z,116.00
2019-02-26T06:10:06.420Z,128.00
2019-02-26T06:11:06.329Z,144.00
2019-02-26T06:12:06.304Z,160.00
2019-02-26T06:13:07.663Z,180.00
2019-02-26T06:14:09.468Z,200.00
2019-02-26T06:15:08.076Z,224.00
2019-02-26T06:16:07.589Z,248.00
2019-02-26T06:17:07.360Z,272.00
2019-02-26T06:18:06.067Z,296.00
2019-02-26T06:19:06.552Z,324.00
2019-02-26T06:20:08.093Z,356.00
2019-02-26T06:21:05.859Z,384.00
2019-02-26T06:22:05.734Z,420.00
2019-02-26T06:23:05.698Z,448.00
2019-02-26T06:24:05.620Z,480.00
2019-02-26T06:25:12.454Z,512.00
2019-02-26T06:26:09.742Z,544.00
2019-02-26T06:27:08.583Z,580.00
2019-02-26T06:28:07.694Z,616.00
2019-02-26T06:29:05.349Z,652.00
2019-02-26T06:30:07.488Z,688.00
2019-02-26T06:31:05.341Z,728.00
2019-02-26T06:32:07.271Z,764.00
2019-02-26T06:33:07.129Z,808.00
2019-02-26T06:34:06.458Z,852.00
2019-02-26T06:35:08.108Z,892.00
2019-02-26T06:36:06.408Z,936.00
2019-02-26T06:37:05.570Z,984.00
2019-02-26T06:38:06.819Z,1032.00
2019-02-26T06:39:05.982Z,1084.00
2019-02-26T06:40:05.681Z,1140.00
2019-02-26T06:41:04.660Z,1200.00
2019-02-26T06:42:05.288Z,1264.00
2019-02-26T06:43:04.626Z,1328.00
2019-02-26T06:44:04.545Z,1420.00
2019-02-26T06:45:06.483Z,1464.00
2019-02-26T06:46:05.346Z,1548.00
2019-02-26T06:47:04.785Z,1636.00
2019-02-26T06:48:04.305Z,1744.00
2019-02-26T06:49:04.270Z,2308.00
2019-02-26T06:50:07.553Z,2424.00
2019-02-26T06:51:04.597Z,2024.00
2019-02-26T06:52:05.935Z,2100.00
2019-02-26T06:53:04.604Z,2216.00
2019-02-26T06:54:04.048Z,2356.00
2019-02-26T06:55:05.963Z,2524.00
2019-02-26T06:56:03.829Z,2764.00
2019-02-26T06:57:03.796Z,3888.00
2019-02-26T06:58:03.715Z,9164.00
2019-02-26T06:59:05.286Z,12460.00
2019-02-26T07:00:04.286Z,13184.00
2019-02-26T07:01:03.552Z,14720.00
2019-02-26T07:02:03.473Z,18240.00
2019-02-26T07:03:03.444Z,22144.00
2019-02-26T07:04:03.349Z,23680.00
2019-02-26T07:05:03.354Z,23904.00
2019-02-26T07:06:04.903Z,24640.00
2019-02-26T07:07:04.417Z,25888.00
2019-02-26T07:08:04.786Z,23744.00
2019-02-26T07:09:03.110Z,29248.00
2019-02-26T07:10:03.078Z,33664.00
2019-02-26T07:11:03.875Z,38144.00
2019-02-26T07:12:02.966Z,44544.00
2019-02-26T07:13:05.064Z,48544.00
2019-02-26T07:14:03.640Z,47968.00
2019-02-26T07:15:02.764Z,47552.00
2019-02-26T07:16:05.185Z,40960.00
2019-02-26T07:17:02.666Z,44288.00
2019-02-26T07:18:06.793Z,45216.00
2019-02-26T07:19:03.929Z,44768.00
2019-02-26T07:20:03.171Z,44480.00
2019-02-26T07:21:02.526Z,41248.00
2019-02-26T07:22:02.402Z,47072.00
2019-02-26T07:23:03.911Z,49216.00
2019-02-26T07:24:03.439Z,49664.00
2019-02-26T07:25:02.283Z,52608.00
2019-02-26T07:26:02.281Z,52192.00
2019-02-26T07:27:04.145Z,56224.00
2019-02-26T07:28:02.926Z,58272.00
2019-02-26T07:29:03.459Z,59904.00
2019-02-26T07:30:02.040Z,60256.00
2019-02-26T07:31:02.735Z,59008.00
2019-02-26T07:32:01.937Z,58560.00
2019-02-26T07:33:03.103Z,44832.00
2019-02-26T07:34:03.177Z,46336.00
2019-02-26T07:35:03.943Z,58688.00
2019-02-26T07:36:04.047Z,61504.00
2019-02-26T07:37:01.769Z,63072.00
2019-02-26T07:38:03.491Z,64864.00
2019-02-26T07:39:01.689Z,64704.00
2019-02-26T07:40:03.766Z,65120.00
2019-02-26T07:41:03.632Z,60768.00
2019-02-26T07:42:01.533Z,59232.00
2019-02-26T07:43:04.855Z,61312.00
2019-02-26T07:44:01.443Z,63680.00
2019-02-26T07:45:01.452Z,66848.00
2019-02-26T07:46:01.335Z,67424.00
2019-02-26T07:47:03.670Z,69472.00
2019-02-26T07:48:01.303Z,66208.00
2019-02-26T07:49:04.202Z,68800.00
2019-02-26T07:50:04.045Z,69600.00
2019-02-26T07:51:02.181Z,71360.00
2019-02-26T07:52:03.882Z,68096.00
2019-02-26T07:53:01.103Z,68928.00
2019-02-26T07:54:01.054Z,68960.00
2019-02-26T07:55:01.055Z,72096.00
2019-02-26T07:56:01.787Z,75424.00
2019-02-26T07:57:02.612Z,75360.00
2019-02-26T07:58:00.938Z,78400.00
2019-02-26T07:59:03.778Z,82176.00
2019-02-26T08:00:00.842Z,83328.00
2019-02-26T08:01:00.749Z,85760.00
2019-02-26T08:02:01.766Z,88128.00
2019-02-26T08:03:02.110Z,89856.00
2019-02-26T08:04:00.632Z,88256.00
2019-02-26T08:05:00.611Z,77536.00
2019-02-26T08:06:04.688Z,69344.00
2019-02-26T08:07:01.904Z,69664.00
2019-02-26T08:08:00.578Z,75136.00
2019-02-26T08:09:00.495Z,83584.00
2019-02-26T08:10:00.460Z,96032.00
2019-02-26T08:11:00.374Z,95168.00
2019-02-26T08:12:02.067Z,94080.00
2019-02-26T08:13:01.555Z,83360.00
2019-02-26T08:14:01.551Z,70336.00
2019-02-26T08:15:02.324Z,81216.00
2019-02-26T08:16:02.332Z,90336.00
2019-02-26T08:17:01.883Z,99008.00
2019-02-26T08:18:01.329Z,99680.00
2019-02-26T08:19:01.382Z,96416.00
2019-02-26T08:20:01.865Z,97216.00
2019-02-26T08:21:02.454Z,95200.00
2019-02-26T08:22:00.113Z,97696.00
2019-02-26T08:23:01.388Z,100096.00
2019-02-26T08:23:59.993Z,100256.00
2019-02-26T08:24:59.908Z,99712.00
2019-02-26T08:26:02.155Z,100992.00
2019-02-26T08:27:01.427Z,102624.00
2019-02-26T08:28:01.293Z,99104.00
2019-02-26T08:29:00.211Z,95584.00
2019-02-26T08:30:00.931Z,96128.00
2019-02-26T08:30:59.663Z,97856.00
2019-02-26T08:32:01.856Z,103616.00
2019-02-26T08:33:01.943Z,107296.00
2019-02-26T08:33:59.567Z,108160.00
2019-02-26T08:35:00.109Z,106208.00
2019-02-26T08:35:59.547Z,109024.00
2019-02-26T08:36:59.520Z,103872.00
2019-02-26T08:37:59.521Z,112800.00
2019-02-26T08:38:59.445Z,110624.00
2019-02-26T08:39:59.428Z,115072.00
2019-02-26T08:40:59.399Z,120032.00
2019-02-26T08:41:59.322Z,118368.00
2019-02-26T08:42:59.698Z,117280.00
2019-02-26T08:43:59.274Z,116064.00
2019-02-26T08:44:59.208Z,113024.00
2019-02-26T08:45:59.195Z,114688.00
2019-02-26T08:46:59.187Z,124320.00
2019-02-26T08:47:59.191Z,131968.00
2019-02-26T08:49:07.870Z,121920.00
2019-02-26T08:50:01.259Z,138080.00
2019-02-26T08:51:03.107Z,137984.00
2019-02-26T08:51:59.038Z,144864.00
2019-02-26T08:52:59.048Z,151840.00
2019-02-26T08:53:58.954Z,177152.00
2019-02-26T08:54:58.951Z,150304.00
2019-02-26T08:56:01.376Z,107136.00
2019-02-26T08:56:58.843Z,57024.00
2019-02-26T08:57:58.841Z,32000.00
2019-02-26T08:59:00.788Z,26688.00
2019-02-26T08:59:58.800Z,25952.00
2019-02-26T09:00:58.713Z,25120.00
2019-02-26T09:01:58.713Z,24736.00
2019-02-26T09:02:58.687Z,24512.00
2019-02-26T09:04:00.693Z,24192.00
2019-02-26T09:04:59.274Z,23488.00
2019-02-26T09:06:10.937Z,23040.00
2019-02-26T09:07:00.240Z,22656.00
2019-02-26T09:07:58.570Z,22432.00
2019-02-26T09:09:00.196Z,22176.00
2019-02-26T09:09:58.451Z,21568.00
2019-02-26T09:10:58.377Z,20576.00
2019-02-26T09:12:00.646Z,19840.00
2019-02-26T09:12:58.356Z,20224.00
2019-02-26T09:13:59.569Z,20288.00
2019-02-26T09:14:58.257Z,20800.00
2019-02-26T09:16:00.480Z,20320.00
2019-02-26T09:16:59.702Z,19104.00
2019-02-26T09:17:58.240Z,18496.00
2019-02-26T09:18:58.130Z,19168.00
2019-02-26T09:20:08.298Z,18496.00
2019-02-26T09:20:58.131Z,18784.00
2019-02-26T09:21:58.095Z,17664.00
2019-02-26T09:22:59.648Z,16096.00
2019-02-26T09:24:00.021Z,14336.00
2019-02-26T09:25:01.455Z,12460.00
2019-02-26T09:26:00.407Z,11296.00
2019-02-26T09:26:59.940Z,10140.00
2019-02-26T09:27:57.889Z,9472.00
2019-02-26T09:28:57.858Z,9004.00
2019-02-26T09:29:57.858Z,8724.00
2019-02-26T09:31:01.047Z,8544.00
2019-02-26T09:31:57.770Z,8428.00
2019-02-26T09:32:59.065Z,8304.00
2019-02-26T09:33:57.663Z,8256.00
2019-02-26T09:34:59.196Z,8180.00
2019-02-26T09:35:57.739Z,8180.00
2019-02-26T09:36:58.237Z,8108.00
2019-02-26T09:38:00.617Z,7996.00
2019-02-26T09:38:57.536Z,7936.00
2019-02-26T09:39:59.227Z,8040.00
2019-02-26T09:40:57.532Z,8068.00
2019-02-26T09:41:59.263Z,8064.00
2019-02-26T09:43:00.002Z,8016.00
2019-02-26T09:43:59.421Z,8032.00
2019-02-26T09:44:59.646Z,8044.00
2019-02-26T09:45:57.380Z,7880.00
2019-02-26T09:46:58.320Z,7784.00
2019-02-26T09:47:58.057Z,7520.00
2019-02-26T09:48:57.818Z,7740.00
2019-02-26T09:49:58.384Z,7828.00
2019-02-26T09:50:57.178Z,7864.00
2019-02-26T09:51:58.941Z,8016.00
2019-02-26T09:52:59.121Z,8000.00
2019-02-26T09:53:58.872Z,8012.00
2019-02-26T09:54:57.140Z,7944.00
2019-02-26T09:55:57.019Z,8020.00
2019-02-26T09:56:57.021Z,7992.00
2019-02-26T09:57:56.958Z,7956.00
2019-02-26T09:58:56.946Z,7664.00
2019-02-26T09:59:58.099Z,7600.00
2019-02-26T10:00:56.814Z,7572.00
2019-02-26T10:01:58.779Z,7340.00
2019-02-26T10:02:56.788Z,7460.00
2019-02-26T10:03:58.467Z,7620.00
2019-02-26T10:04:56.783Z,7576.00
2019-02-26T10:05:57.908Z,7500.00
2019-02-26T10:06:56.699Z,7464.00
2019-02-26T10:07:59.721Z,7412.00
2019-02-26T10:08:56.580Z,7488.00
2019-02-26T10:09:56.547Z,7480.00
2019-02-26T10:10:57.600Z,7488.00
2019-02-26T10:11:56.546Z,7452.00
2019-02-26T10:12:59.293Z,7268.00
2019-02-26T10:13:56.435Z,7352.00
2019-02-26T10:14:59.595Z,6952.00
2019-02-26T10:15:58.632Z,6792.00
2019-02-26T10:16:56.983Z,7244.00
2019-02-26T10:17:58.678Z,6840.00
2019-02-26T10:18:56.771Z,6972.00
2019-02-26T10:19:56.959Z,7116.00
2019-02-26T10:20:56.198Z,6984.00
2019-02-26T10:21:57.394Z,7416.00
2019-02-26T10:22:58.614Z,7232.00
2019-02-26T10:23:56.712Z,7184.00
2019-02-26T10:24:56.008Z,7020.00
2019-02-26T10:25:57.835Z,6984.00
2019-02-26T10:26:58.671Z,7036.00
2019-02-26T10:27:55.988Z,7148.00
2019-02-26T10:29:02.300Z,7164.00
2019-02-26T10:29:55.866Z,7056.00
2019-02-26T10:30:56.971Z,6912.00
2019-02-26T10:31:56.701Z,6860.00
2019-02-26T10:32:55.750Z,6676.00
2019-02-26T10:33:55.714Z,6516.00
2019-02-26T10:34:55.726Z,6552.00
2019-02-26T10:35:55.633Z,6676.00
2019-02-26T10:36:55.719Z,6904.00
2019-02-26T10:37:57.138Z,6764.00
2019-02-26T10:38:57.755Z,6584.00
2019-02-26T10:39:55.513Z,6728.00
2019-02-26T10:40:57.354Z,6632.00
2019-02-26T10:41:55.480Z,6356.00
2019-02-26T10:42:55.400Z,6240.00
2019-02-26T10:43:55.370Z,6152.00
2019-02-26T10:44:55.359Z,6296.00
2019-02-26T10:45:55.272Z,6224.00
2019-02-26T10:46:55.274Z,6276.00
2019-02-26T10:47:56.700Z,6408.00
2019-02-26T10:48:55.154Z,6428.00
2019-02-26T10:49:56.461Z,6448.00
2019-02-26T10:50:55.121Z,6384.00
2019-02-26T10:51:55.564Z,6516.00
2019-02-26T10:52:57.598Z,6472.00
2019-02-26T10:53:57.528Z,6444.00
2019-02-26T10:54:55.001Z,6340.00
2019-02-26T10:55:54.932Z,6288.00
2019-02-26T10:56:54.893Z,6296.00
2019-02-26T10:57:55.249Z,6272.00
2019-02-26T10:58:58.728Z,6240.00
2019-02-26T10:59:56.980Z,6196.00
2019-02-26T11:00:55.723Z,6160.00
2019-02-26T11:01:55.326Z,6160.00
2019-02-26T11:02:54.691Z,6128.00
2019-02-26T11:03:55.188Z,6100.00
2019-02-26T11:04:55.520Z,6088.00
2019-02-26T11:05:54.572Z,6068.00
2019-02-26T11:06:54.527Z,6036.00
2019-02-26T11:07:55.806Z,5992.00
2019-02-26T11:08:55.735Z,5968.00
2019-02-26T11:09:56.483Z,5916.00
2019-02-26T11:10:54.322Z,5892.00
2019-02-26T11:11:54.969Z,5864.00
2019-02-26T11:12:56.269Z,5836.00
2019-02-26T11:13:54.207Z,5812.00
2019-02-26T11:14:56.190Z,5780.00
2019-02-26T11:15:56.555Z,5728.00
2019-02-26T11:16:54.093Z,5664.00
2019-02-26T11:17:55.895Z,5624.00
2019-02-26T11:18:54.052Z,5624.00
2019-02-26T11:19:55.526Z,5608.00
2019-02-26T11:20:55.959Z,5572.00
2019-02-26T11:21:55.960Z,5528.00
2019-02-26T11:22:53.931Z,5508.00
2019-02-26T11:23:53.935Z,5460.00
2019-02-26T11:24:56.123Z,5492.00
2019-02-26T11:25:53.756Z,5488.00
2019-02-26T11:26:53.728Z,5468.00
2019-02-26T11:27:53.734Z,5444.00
2019-02-26T11:28:53.697Z,5404.00
2019-02-26T11:29:54.646Z,5388.00
2019-02-26T11:30:54.945Z,5348.00
2019-02-26T11:31:53.576Z,5312.00
2019-02-26T11:32:56.131Z,5292.00
2019-02-26T11:33:56.424Z,5248.00
2019-02-26T11:34:55.116Z,5244.00
2019-02-26T11:35:53.457Z,5168.00
2019-02-26T11:36:56.009Z,5144.00
2019-02-26T11:37:55.362Z,5160.00
2019-02-26T11:38:53.255Z,5176.00
2019-02-26T11:39:55.003Z,5140.00
2019-02-26T11:40:53.258Z,5140.00
2019-02-26T11:41:54.575Z,5132.00
2019-02-26T11:42:53.135Z,5064.00
2019-02-26T11:43:53.109Z,5076.00
2019-02-26T11:44:53.027Z,5008.00
2019-02-26T11:45:53.014Z,5016.00
2019-02-26T11:46:54.308Z,4996.00
2019-02-26T11:47:52.912Z,4196.00
2019-02-26T11:48:54.953Z,5000.00
2019-02-26T11:49:52.863Z,4956.00
2019-02-26T11:50:52.797Z,4972.00
2019-02-26T11:51:52.869Z,4884.00
2019-02-26T11:52:54.966Z,4932.00
2019-02-26T11:53:52.753Z,4964.00
2019-02-26T11:54:52.662Z,4980.00
2019-02-26T11:55:54.467Z,4964.00
2019-02-26T11:56:52.672Z,4932.00
2019-02-26T11:57:52.541Z,4900.00
2019-02-26T11:58:52.538Z,4904.00
2019-02-26T11:59:52.543Z,4896.00
2019-02-26T12:00:52.425Z,4856.00
2019-02-26T12:01:54.013Z,4860.00
2019-02-26T12:02:52.388Z,4848.00
2019-02-26T12:03:55.903Z,4836.00
2019-02-26T12:04:52.387Z,4824.00
2019-02-26T12:05:54.205Z,4640.00
2019-02-26T12:06:52.196Z,4808.00
2019-02-26T12:07:53.827Z,4796.00
2019-02-26T12:08:52.186Z,4756.00
2019-02-26T12:09:52.071Z,4704.00
2019-02-26T12:10:52.415Z,4692.00
2019-02-26T12:11:52.035Z,4708.00
2019-02-26T12:12:54.021Z,4640.00
2019-02-26T12:13:53.165Z,4628.00
2019-02-26T12:14:51.914Z,4588.00
2019-02-26T12:15:51.839Z,4668.00
2019-02-26T12:16:51.837Z,4656.00
2019-02-26T12:17:53.780Z,4596.00
2019-02-26T12:18:51.839Z,4332.00
2019-02-26T12:19:53.350Z,4400.00
2019-02-26T12:20:51.721Z,4344.00
2019-02-26T12:21:52.755Z,4248.00
2019-02-26T12:22:52.363Z,4220.00
2019-02-26T12:23:51.599Z,4348.00
2019-02-26T12:24:55.715Z,4332.00
2019-02-26T12:25:53.619Z,4244.00
2019-02-26T12:26:52.416Z,4248.00
2019-02-26T12:27:51.370Z,4156.00
2019-02-26T12:28:52.390Z,4256.00
2019-02-26T12:29:52.279Z,4264.00
2019-02-26T12:30:51.256Z,4176.00
2019-02-26T12:31:53.811Z,4256.00
2019-02-26T12:32:53.038Z,4264.00
2019-02-26T12:33:51.141Z,4128.00